sensor_id;sensor_type;location;lat;lon;timestamp;temperature;humidity
25937;DHT22;13733;51.178;4.450;2024-03-08T00:02:17;6.10;50.30
25937;DHT22;13733;51.178;4.450;2024-03-08T00:04:43;6.00;50.60
25937;DHT22;13733;51.178;4.450;2024-03-08T00:07:10;6.00;49.80
25937;DHT22;13733;51.178;4.450;2024-03-08T00:09:36;5.90;49.70
25937;DHT22;13733;51.178;4.450;2024-03-08T00:12:02;6.00;49.30
25937;DHT22;13733;51.178;4.450;2024-03-08T00:14:27;6.00;48.20
25937;DHT22;13733;51.178;4.450;2024-03-08T00:16:53;5.90;48.70
25937;DHT22;13733;51.178;4.450;2024-03-08T00:19:20;5.90;49.70
25937;DHT22;13733;51.178;4.450;2024-03-08T00:21:47;5.90;49.10
25937;DHT22;13733;51.178;4.450;2024-03-08T00:24:12;5.80;49.30
25937;DHT22;13733;51.178;4.450;2024-03-08T00:26:38;5.80;49.70
25937;DHT22;13733;51.178;4.450;2024-03-08T00:29:04;5.80;50.70
25937;DHT22;13733;51.178;4.450;2024-03-08T00:31:30;5.90;47.70
25937;DHT22;13733;51.178;4.450;2024-03-08T00:33:59;5.90;44.60
25937;DHT22;13733;51.178;4.450;2024-03-08T00:36:25;5.90;40.80
25937;DHT22;13733;51.178;4.450;2024-03-08T00:38:51;5.90;41.80
25937;DHT22;13733;51.178;4.450;2024-03-08T00:41:16;5.80;37.70
25937;DHT22;13733;51.178;4.450;2024-03-08T00:43:42;5.90;35.40
25937;DHT22;13733;51.178;4.450;2024-03-08T00:46:08;5.80;35.70
25937;DHT22;13733;51.178;4.450;2024-03-08T00:48:35;5.70;37.10
25937;DHT22;13733;51.178;4.450;2024-03-08T00:51:02;5.80;35.70
25937;DHT22;13733;51.178;4.450;2024-03-08T00:53:28;5.70;35.30
25937;DHT22;13733;51.178;4.450;2024-03-08T00:55:53;5.60;37.00
25937;DHT22;13733;51.178;4.450;2024-03-08T00:58:20;5.70;34.10
25937;DHT22;13733;51.178;4.450;2024-03-08T01:00:46;5.60;32.50
25937;DHT22;13733;51.178;4.450;2024-03-08T01:03:12;5.50;32.80
25937;DHT22;13733;51.178;4.450;2024-03-08T01:05:38;5.50;32.30
25937;DHT22;13733;51.178;4.450;2024-03-08T01:08:04;5.60;29.30
25937;DHT22;13733;51.178;4.450;2024-03-08T01:10:30;5.50;29.60
25937;DHT22;13733;51.178;4.450;2024-03-08T01:12:56;5.50;30.00
25937;DHT22;13733;51.178;4.450;2024-03-08T01:15:23;5.40;29.40
25937;DHT22;13733;51.178;4.450;2024-03-08T01:17:49;5.40;30.30
25937;DHT22;13733;51.178;4.450;2024-03-08T01:20:15;5.30;29.40
25937;DHT22;13733;51.178;4.450;2024-03-08T01:22:41;5.30;30.20
25937;DHT22;13733;51.178;4.450;2024-03-08T01:25:07;5.30;28.00
25937;DHT22;13733;51.178;4.450;2024-03-08T01:27:34;5.30;25.90
25937;DHT22;13733;51.178;4.450;2024-03-08T01:30:01;5.30;25.90
25937;DHT22;13733;51.178;4.450;2024-03-08T01:32:27;5.40;23.70
25937;DHT22;13733;51.178;4.450;2024-03-08T01:34:53;5.30;18.60
25937;DHT22;13733;51.178;4.450;2024-03-08T01:37:19;5.30;18.40
25937;DHT22;13733;51.178;4.450;2024-03-08T01:39:45;5.30;18.20
25937;DHT22;13733;51.178;4.450;2024-03-08T01:42:11;5.20;16.60
25937;DHT22;13733;51.178;4.450;2024-03-08T01:44:40;5.20;16.90
25937;DHT22;13733;51.178;4.450;2024-03-08T01:47:06;5.20;18.60
25937;DHT22;13733;51.178;4.450;2024-03-08T01:49:33;5.20;14.20
25937;DHT22;13733;51.178;4.450;2024-03-08T01:51:59;5.20;9.60
25937;DHT22;13733;51.178;4.450;2024-03-08T01:54:26;5.20;7.40
25937;DHT22;13733;51.178;4.450;2024-03-08T01:56:52;5.10;9.20
25937;DHT22;13733;51.178;4.450;2024-03-08T01:59:19;5.10;10.60
25937;DHT22;13733;51.178;4.450;2024-03-08T02:01:45;5.00;12.20
25937;DHT22;13733;51.178;4.450;2024-03-08T02:04:12;5.00;12.90
25937;DHT22;13733;51.178;4.450;2024-03-08T02:06:37;5.00;13.40
25937;DHT22;13733;51.178;4.450;2024-03-08T02:09:04;5.00;12.70
25937;DHT22;13733;51.178;4.450;2024-03-08T02:11:36;4.90;14.00
25937;DHT22;13733;51.178;4.450;2024-03-08T02:14:02;4.90;13.00
25937;DHT22;13733;51.178;4.450;2024-03-08T02:16:28;4.90;9.00
25937;DHT22;13733;51.178;4.450;2024-03-08T02:18:54;4.90;8.30
25937;DHT22;13733;51.178;4.450;2024-03-08T02:21:20;5.00;3.90
25937;DHT22;13733;51.178;4.450;2024-03-08T02:23:47;4.80;8.00
25937;DHT22;13733;51.178;4.450;2024-03-08T02:26:12;4.80;10.70
25937;DHT22;13733;51.178;4.450;2024-03-08T02:28:38;4.90;6.90
25937;DHT22;13733;51.178;4.450;2024-03-08T02:31:05;4.90;4.70
25937;DHT22;13733;51.178;4.450;2024-03-08T02:33:33;4.80;3.30
25937;DHT22;13733;51.178;4.450;2024-03-08T02:36:00;4.70;3.60
25937;DHT22;13733;51.178;4.450;2024-03-08T02:38:26;4.80;3.30
25937;DHT22;13733;51.178;4.450;2024-03-08T02:40:52;4.80;1.00
25937;DHT22;13733;51.178;4.450;2024-03-08T02:43:20;4.70;1.30
25937;DHT22;13733;51.178;4.450;2024-03-08T02:45:47;4.70;1.00
25937;DHT22;13733;51.178;4.450;2024-03-08T02:48:14;4.70;1.10
25937;DHT22;13733;51.178;4.450;2024-03-08T02:50:42;4.60;1.80
25937;DHT22;13733;51.178;4.450;2024-03-08T02:53:14;4.70;1.00
25937;DHT22;13733;51.178;4.450;2024-03-08T02:55:41;4.60;1.00
25937;DHT22;13733;51.178;4.450;2024-03-08T02:58:07;4.60;1.00
25937;DHT22;13733;51.178;4.450;2024-03-08T03:00:36;4.60;3.00
25937;DHT22;13733;51.178;4.450;2024-03-08T03:03:04;4.60;1.80
25937;DHT22;13733;51.178;4.450;2024-03-08T03:05:31;4.60;1.00
25937;DHT22;13733;51.178;4.450;2024-03-08T03:07:57;4.50;1.00
25937;DHT22;13733;51.178;4.450;2024-03-08T03:10:24;4.50;1.00
25937;DHT22;13733;51.178;4.450;2024-03-08T03:12:50;4.40;2.60
25937;DHT22;13733;51.178;4.450;2024-03-08T03:15:16;4.30;3.80
25937;DHT22;13733;51.178;4.450;2024-03-08T03:17:47;4.30;5.90
25937;DHT22;13733;51.178;4.450;2024-03-08T03:20:13;4.30;6.90
25937;DHT22;13733;51.178;4.450;2024-03-08T03:22:40;4.30;4.60
25937;DHT22;13733;51.178;4.450;2024-03-08T03:25:10;4.30;8.00
25937;DHT22;13733;51.178;4.450;2024-03-08T03:27:36;4.30;7.40
25937;DHT22;13733;51.178;4.450;2024-03-08T03:30:03;4.30;4.10
25937;DHT22;13733;51.178;4.450;2024-03-08T03:32:48;4.30;1.70
25937;DHT22;13733;51.178;4.450;2024-03-08T03:35:14;4.30;1.00
25937;DHT22;13733;51.178;4.450;2024-03-08T03:37:43;4.20;1.00
25937;DHT22;13733;51.178;4.450;2024-03-08T03:40:17;4.20;2.10
25937;DHT22;13733;51.178;4.450;2024-03-08T03:42:44;4.30;1.00
25937;DHT22;13733;51.178;4.450;2024-03-08T03:45:11;4.20;1.00
25937;DHT22;13733;51.178;4.450;2024-03-08T03:47:37;4.20;1.00
25937;DHT22;13733;51.178;4.450;2024-03-08T03:50:05;4.20;1.00
25937;DHT22;13733;51.178;4.450;2024-03-08T03:52:31;4.10;1.00
25937;DHT22;13733;51.178;4.450;2024-03-08T03:54:57;4.10;1.00
25937;DHT22;13733;51.178;4.450;2024-03-08T03:57:23;4.10;2.50
25937;DHT22;13733;51.178;4.450;2024-03-08T03:59:49;4.10;3.10
25937;DHT22;13733;51.178;4.450;2024-03-08T04:02:17;4.00;5.00
25937;DHT22;13733;51.178;4.450;2024-03-08T04:04:43;4.00;5.10
25937;DHT22;13733;51.178;4.450;2024-03-08T04:07:11;3.90;7.00
25937;DHT22;13733;51.178;4.450;2024-03-08T04:09:37;3.90;6.40
25937;DHT22;13733;51.178;4.450;2024-03-08T04:12:03;3.90;4.20
25937;DHT22;13733;51.178;4.450;2024-03-08T04:14:29;3.90;2.50
25937;DHT22;13733;51.178;4.450;2024-03-08T04:16:55;3.90;2.30
25937;DHT22;13733;51.178;4.450;2024-03-08T04:19:22;3.90;1.00
25937;DHT22;13733;51.178;4.450;2024-03-08T04:21:48;4.00;1.00
25937;DHT22;13733;51.178;4.450;2024-03-08T04:24:13;3.90;1.00
25937;DHT22;13733;51.178;4.450;2024-03-08T04:26:39;3.90;1.00
25937;DHT22;13733;51.178;4.450;2024-03-08T04:29:06;3.90;1.00
25937;DHT22;13733;51.178;4.450;2024-03-08T04:31:32;3.90;1.00
25937;DHT22;13733;51.178;4.450;2024-03-08T04:33:58;3.80;1.10
25937;DHT22;13733;51.178;4.450;2024-03-08T04:36:24;3.80;2.20
25937;DHT22;13733;51.178;4.450;2024-03-08T04:38:50;3.80;1.00
25937;DHT22;13733;51.178;4.450;2024-03-08T04:41:17;3.80;1.80
25937;DHT22;13733;51.178;4.450;2024-03-08T04:43:44;3.80;1.60
25937;DHT22;13733;51.178;4.450;2024-03-08T04:46:10;3.70;3.70
25937;DHT22;13733;51.178;4.450;2024-03-08T04:48:35;3.80;3.10
25937;DHT22;13733;51.178;4.450;2024-03-08T04:51:03;3.80;1.00
25937;DHT22;13733;51.178;4.450;2024-03-08T04:53:29;3.80;1.00
25937;DHT22;13733;51.178;4.450;2024-03-08T04:55:57;3.80;1.00
25937;DHT22;13733;51.178;4.450;2024-03-08T04:58:23;3.60;3.70
25937;DHT22;13733;51.178;4.450;2024-03-08T05:00:49;3.70;6.40
25937;DHT22;13733;51.178;4.450;2024-03-08T05:03:16;3.60;8.10
25937;DHT22;13733;51.178;4.450;2024-03-08T05:05:42;3.60;8.40
25937;DHT22;13733;51.178;4.450;2024-03-08T05:08:08;3.60;9.70
25937;DHT22;13733;51.178;4.450;2024-03-08T05:10:33;3.60;6.20
25937;DHT22;13733;51.178;4.450;2024-03-08T05:12:59;3.60;8.10
25937;DHT22;13733;51.178;4.450;2024-03-08T05:15:25;3.60;7.90
25937;DHT22;13733;51.178;4.450;2024-03-08T05:17:51;3.50;10.30
25937;DHT22;13733;51.178;4.450;2024-03-08T05:20:17;3.50;8.40
25937;DHT22;13733;51.178;4.450;2024-03-08T05:22:43;3.40;11.80
25937;DHT22;13733;51.178;4.450;2024-03-08T05:25:09;3.50;13.40
25937;DHT22;13733;51.178;4.450;2024-03-08T05:27:36;3.40;12.50
25937;DHT22;13733;51.178;4.450;2024-03-08T05:30:03;3.50;10.70
25937;DHT22;13733;51.178;4.450;2024-03-08T05:32:30;3.50;9.30
25937;DHT22;13733;51.178;4.450;2024-03-08T05:34:56;3.40;8.30
25937;DHT22;13733;51.178;4.450;2024-03-08T05:37:21;3.40;11.70
25937;DHT22;13733;51.178;4.450;2024-03-08T05:39:47;3.40;12.00
25937;DHT22;13733;51.178;4.450;2024-03-08T05:42:14;3.40;15.10
25937;DHT22;13733;51.178;4.450;2024-03-08T05:44:39;3.40;17.10
25937;DHT22;13733;51.178;4.450;2024-03-08T05:47:06;3.30;16.10
25937;DHT22;13733;51.178;4.450;2024-03-08T05:49:32;3.40;14.50
25937;DHT22;13733;51.178;4.450;2024-03-08T05:51:59;3.40;15.80
25937;DHT22;13733;51.178;4.450;2024-03-08T05:54:25;3.30;17.50
25937;DHT22;13733;51.178;4.450;2024-03-08T05:56:52;3.30;18.00
25937;DHT22;13733;51.178;4.450;2024-03-08T05:59:20;3.30;17.30
25937;DHT22;13733;51.178;4.450;2024-03-08T06:01:45;3.30;16.90
25937;DHT22;13733;51.178;4.450;2024-03-08T06:04:12;3.30;17.30
25937;DHT22;13733;51.178;4.450;2024-03-08T06:06:38;3.40;14.80
25937;DHT22;13733;51.178;4.450;2024-03-08T06:09:05;3.50;8.80
25937;DHT22;13733;51.178;4.450;2024-03-08T06:11:37;3.40;6.30
25937;DHT22;13733;51.178;4.450;2024-03-08T06:14:03;3.40;8.90
25937;DHT22;13733;51.178;4.450;2024-03-08T06:16:29;3.40;8.70
25937;DHT22;13733;51.178;4.450;2024-03-08T06:18:58;3.30;10.70
25937;DHT22;13733;51.178;4.450;2024-03-08T06:21:24;3.40;10.50
25937;DHT22;13733;51.178;4.450;2024-03-08T06:23:54;3.40;9.50
25937;DHT22;13733;51.178;4.450;2024-03-08T06:26:28;3.30;12.30
25937;DHT22;13733;51.178;4.450;2024-03-08T06:28:55;3.40;15.50
25937;DHT22;13733;51.178;4.450;2024-03-08T06:31:22;3.30;14.30
25937;DHT22;13733;51.178;4.450;2024-03-08T06:33:49;3.30;17.40
25937;DHT22;13733;51.178;4.450;2024-03-08T06:36:17;3.30;15.70
25937;DHT22;13733;51.178;4.450;2024-03-08T06:38:48;3.40;14.40
25937;DHT22;13733;51.178;4.450;2024-03-08T06:41:14;3.30;15.30
25937;DHT22;13733;51.178;4.450;2024-03-08T06:43:44;3.40;15.00
25937;DHT22;13733;51.178;4.450;2024-03-08T06:46:10;3.40;12.90
25937;DHT22;13733;51.178;4.450;2024-03-08T06:48:38;3.50;10.70
25937;DHT22;13733;51.178;4.450;2024-03-08T06:51:04;3.50;9.20
25937;DHT22;13733;51.178;4.450;2024-03-08T06:53:31;3.60;6.60
25937;DHT22;13733;51.178;4.450;2024-03-08T06:55:58;3.70;14.00
25937;DHT22;13733;51.178;4.450;2024-03-08T06:58:24;3.60;2.70
25937;DHT22;13733;51.178;4.450;2024-03-08T07:00:51;3.60;5.50
25937;DHT22;13733;51.178;4.450;2024-03-08T07:03:19;3.60;5.00
25937;DHT22;13733;51.178;4.450;2024-03-08T07:05:47;3.60;2.40
25937;DHT22;13733;51.178;4.450;2024-03-08T07:08:13;3.70;1.60
25937;DHT22;13733;51.178;4.450;2024-03-08T07:10:40;3.70;1.00
25937;DHT22;13733;51.178;4.450;2024-03-08T07:13:08;3.70;1.00
25937;DHT22;13733;51.178;4.450;2024-03-08T07:15:35;3.80;1.00
25937;DHT22;13733;51.178;4.450;2024-03-08T07:18:01;3.90;1.00
25937;DHT22;13733;51.178;4.450;2024-03-08T07:20:27;3.90;1.00
25937;DHT22;13733;51.178;4.450;2024-03-08T07:22:54;4.00;1.00
25937;DHT22;13733;51.178;4.450;2024-03-08T07:25:20;4.00;1.00
25937;DHT22;13733;51.178;4.450;2024-03-08T07:27:55;4.10;1.00
25937;DHT22;13733;51.178;4.450;2024-03-08T07:30:25;4.10;1.00
25937;DHT22;13733;51.178;4.450;2024-03-08T07:33:10;4.20;1.00
25937;DHT22;13733;51.178;4.450;2024-03-08T07:35:40;4.30;1.00
25937;DHT22;13733;51.178;4.450;2024-03-08T07:38:09;4.40;1.00
25937;DHT22;13733;51.178;4.450;2024-03-08T07:40:41;4.60;1.00
25937;DHT22;13733;51.178;4.450;2024-03-08T07:43:10;4.50;1.00
25937;DHT22;13733;51.178;4.450;2024-03-08T07:45:40;4.50;1.00
25937;DHT22;13733;51.178;4.450;2024-03-08T07:48:06;4.60;1.00
25937;DHT22;13733;51.178;4.450;2024-03-08T07:50:40;4.70;1.00
25937;DHT22;13733;51.178;4.450;2024-03-08T07:53:12;4.80;1.00
25937;DHT22;13733;51.178;4.450;2024-03-08T07:55:38;4.90;1.00
25937;DHT22;13733;51.178;4.450;2024-03-08T07:58:05;5.00;1.00
25937;DHT22;13733;51.178;4.450;2024-03-08T08:00:31;5.00;1.00
25937;DHT22;13733;51.178;4.450;2024-03-08T08:02:58;5.10;1.00
25937;DHT22;13733;51.178;4.450;2024-03-08T08:05:24;5.20;1.00
25937;DHT22;13733;51.178;4.450;2024-03-08T08:07:49;5.20;1.00
25937;DHT22;13733;51.178;4.450;2024-03-08T08:10:17;5.30;1.00
25937;DHT22;13733;51.178;4.450;2024-03-08T08:12:50;5.40;1.00
25937;DHT22;13733;51.178;4.450;2024-03-08T08:15:20;5.50;1.00
25937;DHT22;13733;51.178;4.450;2024-03-08T08:17:45;5.50;1.00
25937;DHT22;13733;51.178;4.450;2024-03-08T08:20:12;5.60;1.00
25937;DHT22;13733;51.178;4.450;2024-03-08T08:22:41;5.70;1.00
25937;DHT22;13733;51.178;4.450;2024-03-08T08:25:11;5.80;1.00
25937;DHT22;13733;51.178;4.450;2024-03-08T08:27:41;5.80;1.00
25937;DHT22;13733;51.178;4.450;2024-03-08T08:30:10;5.90;1.00
25937;DHT22;13733;51.178;4.450;2024-03-08T08:32:37;6.10;1.00
25937;DHT22;13733;51.178;4.450;2024-03-08T08:35:05;6.20;1.00
25937;DHT22;13733;51.178;4.450;2024-03-08T08:37:32;6.30;99.90
25937;DHT22;13733;51.178;4.450;2024-03-08T08:39:58;6.30;99.90
25937;DHT22;13733;51.178;4.450;2024-03-08T08:42:24;6.40;99.90
25937;DHT22;13733;51.178;4.450;2024-03-08T08:44:52;6.40;99.90
25937;DHT22;13733;51.178;4.450;2024-03-08T08:47:17;6.40;99.90
25937;DHT22;13733;51.178;4.450;2024-03-08T08:49:45;6.50;99.90
25937;DHT22;13733;51.178;4.450;2024-03-08T08:52:12;6.60;99.90
25937;DHT22;13733;51.178;4.450;2024-03-08T08:54:38;6.60;99.90
25937;DHT22;13733;51.178;4.450;2024-03-08T08:57:04;6.70;99.90
25937;DHT22;13733;51.178;4.450;2024-03-08T08:59:36;6.70;99.90
25937;DHT22;13733;51.178;4.450;2024-03-08T09:02:02;6.70;99.90
25937;DHT22;13733;51.178;4.450;2024-03-08T09:04:29;6.80;99.90
25937;DHT22;13733;51.178;4.450;2024-03-08T09:06:56;6.80;99.90
25937;DHT22;13733;51.178;4.450;2024-03-08T09:09:23;7.00;99.90
25937;DHT22;13733;51.178;4.450;2024-03-08T09:11:49;7.10;99.90
25937;DHT22;13733;51.178;4.450;2024-03-08T09:14:15;7.20;99.90
25937;DHT22;13733;51.178;4.450;2024-03-08T09:16:41;7.30;99.90
25937;DHT22;13733;51.178;4.450;2024-03-08T09:19:07;7.50;14.00
25937;DHT22;13733;51.178;4.450;2024-03-08T09:21:33;7.60;1.00
25937;DHT22;13733;51.178;4.450;2024-03-08T09:24:02;7.60;1.00
25937;DHT22;13733;51.178;4.450;2024-03-08T09:26:28;7.70;99.90
25937;DHT22;13733;51.178;4.450;2024-03-08T09:28:54;7.80;99.90
25937;DHT22;13733;51.178;4.450;2024-03-08T09:31:21;7.90;99.90
25937;DHT22;13733;51.178;4.450;2024-03-08T09:33:47;7.90;99.90
25937;DHT22;13733;51.178;4.450;2024-03-08T09:36:13;8.00;99.90
25937;DHT22;13733;51.178;4.450;2024-03-08T09:38:40;8.10;1.00
25937;DHT22;13733;51.178;4.450;2024-03-08T09:41:06;8.30;1.00
25937;DHT22;13733;51.178;4.450;2024-03-08T09:43:32;8.50;1.00
25937;DHT22;13733;51.178;4.450;2024-03-08T09:45:58;8.60;1.00
25937;DHT22;13733;51.178;4.450;2024-03-08T09:48:26;8.70;99.90
25937;DHT22;13733;51.178;4.450;2024-03-08T09:50:52;8.80;40.80
25937;DHT22;13733;51.178;4.450;2024-03-08T09:53:17;8.90;1.00
25937;DHT22;13733;51.178;4.450;2024-03-08T09:55:44;9.00;1.00
25937;DHT22;13733;51.178;4.450;2024-03-08T09:58:15;9.20;99.90
25937;DHT22;13733;51.178;4.450;2024-03-08T10:00:43;9.20;94.80
25937;DHT22;13733;51.178;4.450;2024-03-08T10:03:09;9.30;99.90
25937;DHT22;13733;51.178;4.450;2024-03-08T10:05:36;9.50;1.00
25937;DHT22;13733;51.178;4.450;2024-03-08T10:08:02;9.60;99.90
25937;DHT22;13733;51.178;4.450;2024-03-08T10:10:30;9.60;1.00
25937;DHT22;13733;51.178;4.450;2024-03-08T10:12:58;9.60;99.90
25937;DHT22;13733;51.178;4.450;2024-03-08T10:15:27;9.60;99.90
25937;DHT22;13733;51.178;4.450;2024-03-08T10:17:57;9.60;1.00
25937;DHT22;13733;51.178;4.450;2024-03-08T10:20:23;9.70;99.90
25937;DHT22;13733;51.178;4.450;2024-03-08T10:22:49;9.80;1.00
25937;DHT22;13733;51.178;4.450;2024-03-08T10:25:15;9.80;1.00
25937;DHT22;13733;51.178;4.450;2024-03-08T10:27:41;9.90;99.90
25937;DHT22;13733;51.178;4.450;2024-03-08T10:30:12;10.10;1.00
25937;DHT22;13733;51.178;4.450;2024-03-08T10:32:40;10.30;1.00
25937;DHT22;13733;51.178;4.450;2024-03-08T10:35:09;10.40;56.10
25937;DHT22;13733;51.178;4.450;2024-03-08T10:37:48;10.60;1.00
25937;DHT22;13733;51.178;4.450;2024-03-08T10:40:30;10.80;99.90
25937;DHT22;13733;51.178;4.450;2024-03-08T10:42:57;11.00;99.90
25937;DHT22;13733;51.178;4.450;2024-03-08T10:45:38;11.10;1.00
25937;DHT22;13733;51.178;4.450;2024-03-08T10:48:27;11.20;1.00
25937;DHT22;13733;51.178;4.450;2024-03-08T10:50:58;11.50;1.00
25937;DHT22;13733;51.178;4.450;2024-03-08T10:53:27;11.70;1.00
25937;DHT22;13733;51.178;4.450;2024-03-08T10:55:53;12.00;99.90
25937;DHT22;13733;51.178;4.450;2024-03-08T10:58:26;12.20;99.90
25937;DHT22;13733;51.178;4.450;2024-03-08T11:00:55;12.30;99.90
25937;DHT22;13733;51.178;4.450;2024-03-08T11:08:43;12.60;1.00
25937;DHT22;13733;51.178;4.450;2024-03-08T11:11:25;12.50;1.00
25937;DHT22;13733;51.178;4.450;2024-03-08T11:13:58;12.70;1.00
25937;DHT22;13733;51.178;4.450;2024-03-08T11:18:55;13.00;99.90
25937;DHT22;13733;51.178;4.450;2024-03-08T11:21:25;13.20;99.90
25937;DHT22;13733;51.178;4.450;2024-03-08T11:24:12;13.30;99.90
25937;DHT22;13733;51.178;4.450;2024-03-08T11:26:39;13.70;99.90
25937;DHT22;13733;51.178;4.450;2024-03-08T11:32:08;14.50;99.90
25937;DHT22;13733;51.178;4.450;2024-03-08T11:34:35;14.40;99.90
25937;DHT22;13733;51.178;4.450;2024-03-08T11:37:05;14.40;99.90
25937;DHT22;13733;51.178;4.450;2024-03-08T11:39:31;14.50;99.90
25937;DHT22;13733;51.178;4.450;2024-03-08T11:41:57;14.50;99.90
25937;DHT22;13733;51.178;4.450;2024-03-08T11:44:27;14.80;99.90
25937;DHT22;13733;51.178;4.450;2024-03-08T11:46:53;14.90;99.90
25937;DHT22;13733;51.178;4.450;2024-03-08T11:49:19;15.30;99.90
25937;DHT22;13733;51.178;4.450;2024-03-08T11:51:47;15.40;99.30
25937;DHT22;13733;51.178;4.450;2024-03-08T11:54:16;15.70;81.80
25937;DHT22;13733;51.178;4.450;2024-03-08T11:56:41;15.80;47.20
25937;DHT22;13733;51.178;4.450;2024-03-08T11:59:11;16.10;33.50
25937;DHT22;13733;51.178;4.450;2024-03-08T12:01:39;16.20;1.00
25937;DHT22;13733;51.178;4.450;2024-03-08T12:04:05;16.40;1.00
25937;DHT22;13733;51.178;4.450;2024-03-08T12:06:41;16.70;1.00
25937;DHT22;13733;51.178;4.450;2024-03-08T12:09:11;16.90;1.00
25937;DHT22;13733;51.178;4.450;2024-03-08T12:11:37;17.40;1.00
25937;DHT22;13733;51.178;4.450;2024-03-08T12:14:03;17.40;1.00
25937;DHT22;13733;51.178;4.450;2024-03-08T12:16:29;17.50;1.00
25937;DHT22;13733;51.178;4.450;2024-03-08T12:18:55;17.40;1.00
25937;DHT22;13733;51.178;4.450;2024-03-08T12:21:21;17.30;1.00
25937;DHT22;13733;51.178;4.450;2024-03-08T12:26:28;17.90;1.00
25937;DHT22;13733;51.178;4.450;2024-03-08T12:29:17;17.90;1.00
25937;DHT22;13733;51.178;4.450;2024-03-08T12:31:46;17.80;1.00
25937;DHT22;13733;51.178;4.450;2024-03-08T12:34:12;17.60;1.00
25937;DHT22;13733;51.178;4.450;2024-03-08T12:36:45;17.80;1.00
25937;DHT22;13733;51.178;4.450;2024-03-08T12:39:15;18.20;1.00
25937;DHT22;13733;51.178;4.450;2024-03-08T12:41:42;18.30;1.00
25937;DHT22;13733;51.178;4.450;2024-03-08T12:44:08;18.00;1.00
25937;DHT22;13733;51.178;4.450;2024-03-08T12:46:37;18.60;1.00
25937;DHT22;13733;51.178;4.450;2024-03-08T12:49:09;19.40;1.00
25937;DHT22;13733;51.178;4.450;2024-03-08T12:51:38;19.20;1.00
25937;DHT22;13733;51.178;4.450;2024-03-08T12:54:05;19.30;1.00
25937;DHT22;13733;51.178;4.450;2024-03-08T12:56:34;19.20;1.00
25937;DHT22;13733;51.178;4.450;2024-03-08T12:59:01;19.10;1.00
25937;DHT22;13733;51.178;4.450;2024-03-08T13:01:27;19.60;1.00
25937;DHT22;13733;51.178;4.450;2024-03-08T13:03:53;19.80;1.00
25937;DHT22;13733;51.178;4.450;2024-03-08T13:06:21;19.60;1.00
25937;DHT22;13733;51.178;4.450;2024-03-08T13:08:50;19.20;1.00
25937;DHT22;13733;51.178;4.450;2024-03-08T13:11:18;19.70;1.00
25937;DHT22;13733;51.178;4.450;2024-03-08T13:13:45;20.70;1.00
25937;DHT22;13733;51.178;4.450;2024-03-08T13:16:11;21.10;1.00
25937;DHT22;13733;51.178;4.450;2024-03-08T13:18:41;22.00;1.00
25937;DHT22;13733;51.178;4.450;2024-03-08T13:21:10;22.10;99.90
25937;DHT22;13733;51.178;4.450;2024-03-08T13:23:39;21.70;99.90
25937;DHT22;13733;51.178;4.450;2024-03-08T13:26:10;20.50;99.90
25937;DHT22;13733;51.178;4.450;2024-03-08T13:28:45;20.60;99.90
25937;DHT22;13733;51.178;4.450;2024-03-08T13:31:13;20.70;99.90
25937;DHT22;13733;51.178;4.450;2024-03-08T13:33:40;20.70;99.90
25937;DHT22;13733;51.178;4.450;2024-03-08T13:36:12;21.20;99.90
25937;DHT22;13733;51.178;4.450;2024-03-08T13:38:46;21.80;99.90
25937;DHT22;13733;51.178;4.450;2024-03-08T13:41:13;21.50;99.90
25937;DHT22;13733;51.178;4.450;2024-03-08T13:43:47;22.00;99.90
25937;DHT22;13733;51.178;4.450;2024-03-08T13:46:16;22.30;99.90
25937;DHT22;13733;51.178;4.450;2024-03-08T13:48:42;22.70;99.90
25937;DHT22;13733;51.178;4.450;2024-03-08T13:51:09;22.80;99.90
25937;DHT22;13733;51.178;4.450;2024-03-08T13:53:40;22.20;99.90
25937;DHT22;13733;51.178;4.450;2024-03-08T13:56:07;22.50;99.90
25937;DHT22;13733;51.178;4.450;2024-03-08T13:58:36;22.20;99.90
25937;DHT22;13733;51.178;4.450;2024-03-08T14:01:02;22.40;99.90
25937;DHT22;13733;51.178;4.450;2024-03-08T14:03:31;22.50;99.90
25937;DHT22;13733;51.178;4.450;2024-03-08T14:05:58;23.30;99.90
25937;DHT22;13733;51.178;4.450;2024-03-08T14:08:25;23.50;99.90
25937;DHT22;13733;51.178;4.450;2024-03-08T14:10:52;23.10;99.90
25937;DHT22;13733;51.178;4.450;2024-03-08T14:13:19;22.30;99.90
25937;DHT22;13733;51.178;4.450;2024-03-08T14:15:45;22.00;99.90
25937;DHT22;13733;51.178;4.450;2024-03-08T14:18:11;22.30;99.90
25937;DHT22;13733;51.178;4.450;2024-03-08T14:20:39;23.00;99.90
25937;DHT22;13733;51.178;4.450;2024-03-08T14:23:04;22.90;99.90
25937;DHT22;13733;51.178;4.450;2024-03-08T14:25:33;22.20;99.90
25937;DHT22;13733;51.178;4.450;2024-03-08T14:27:59;22.40;99.90
25937;DHT22;13733;51.178;4.450;2024-03-08T14:30:29;23.10;99.90
25937;DHT22;13733;51.178;4.450;2024-03-08T14:32:58;23.60;99.90
25937;DHT22;13733;51.178;4.450;2024-03-08T14:35:26;23.70;99.90
25937;DHT22;13733;51.178;4.450;2024-03-08T14:37:52;24.00;99.90
25937;DHT22;13733;51.178;4.450;2024-03-08T14:40:18;24.20;99.90
25937;DHT22;13733;51.178;4.450;2024-03-08T14:42:48;24.20;99.90
25937;DHT22;13733;51.178;4.450;2024-03-08T14:45:15;24.60;99.90
25937;DHT22;13733;51.178;4.450;2024-03-08T14:47:43;24.60;99.90
25937;DHT22;13733;51.178;4.450;2024-03-08T14:50:09;23.80;99.90
25937;DHT22;13733;51.178;4.450;2024-03-08T14:52:35;23.90;99.90
25937;DHT22;13733;51.178;4.450;2024-03-08T14:55:01;23.90;99.90
25937;DHT22;13733;51.178;4.450;2024-03-08T14:57:30;22.60;99.90
25937;DHT22;13733;51.178;4.450;2024-03-08T14:59:59;23.10;99.90
25937;DHT22;13733;51.178;4.450;2024-03-08T15:02:31;23.40;99.90
25937;DHT22;13733;51.178;4.450;2024-03-08T15:05:05;23.50;99.90
25937;DHT22;13733;51.178;4.450;2024-03-08T15:07:37;23.10;99.90
25937;DHT22;13733;51.178;4.450;2024-03-08T15:10:06;23.10;99.90
25937;DHT22;13733;51.178;4.450;2024-03-08T15:12:39;22.50;99.90
25937;DHT22;13733;51.178;4.450;2024-03-08T15:15:07;22.60;99.90
25937;DHT22;13733;51.178;4.450;2024-03-08T15:17:35;22.60;99.90
25937;DHT22;13733;51.178;4.450;2024-03-08T15:20:02;22.10;99.90
25937;DHT22;13733;51.178;4.450;2024-03-08T15:22:29;22.70;99.90
25937;DHT22;13733;51.178;4.450;2024-03-08T15:24:55;23.10;99.90
25937;DHT22;13733;51.178;4.450;2024-03-08T15:27:23;22.80;99.90
25937;DHT22;13733;51.178;4.450;2024-03-08T15:29:51;23.10;99.90
25937;DHT22;13733;51.178;4.450;2024-03-08T15:32:20;22.80;99.90
25937;DHT22;13733;51.178;4.450;2024-03-08T15:34:46;22.90;99.90
25937;DHT22;13733;51.178;4.450;2024-03-08T15:37:12;22.80;99.90
25937;DHT22;13733;51.178;4.450;2024-03-08T15:39:43;23.10;99.90
25937;DHT22;13733;51.178;4.450;2024-03-08T15:42:09;23.80;99.90
25937;DHT22;13733;51.178;4.450;2024-03-08T15:44:37;24.30;99.90
25937;DHT22;13733;51.178;4.450;2024-03-08T15:47:04;23.50;99.90
25937;DHT22;13733;51.178;4.450;2024-03-08T15:49:32;23.60;99.90
25937;DHT22;13733;51.178;4.450;2024-03-08T15:52:00;23.50;99.90
25937;DHT22;13733;51.178;4.450;2024-03-08T15:54:27;23.10;99.90
25937;DHT22;13733;51.178;4.450;2024-03-08T15:56:55;22.90;99.90
25937;DHT22;13733;51.178;4.450;2024-03-08T15:59:20;22.80;99.90
25937;DHT22;13733;51.178;4.450;2024-03-08T16:01:48;22.40;99.90
25937;DHT22;13733;51.178;4.450;2024-03-08T16:04:14;22.10;99.90